createdAt,value
2023-04-14T00:01:21.485Z,96305.59
2023-04-14T00:03:48.342Z,96303.03
2023-04-14T00:06:15.000Z,96308.22
2023-04-14T00:08:41.574Z,96306.91
2023-04-14T00:11:08.263Z,96308.22
2023-04-14T00:13:34.909Z,96287.91
2023-04-14T00:16:01.737Z,96291.28
2023-04-14T00:18:28.506Z,96288.44
2023-04-14T00:20:55.005Z,96296.13
2023-04-14T00:23:21.621Z,96294.91
2023-04-14T00:25:50.735Z,96296.94
2023-04-14T00:28:17.399Z,96291.31
2023-04-14T00:30:44.000Z,96299.56
2023-04-14T00:33:10.814Z,96311.63
2023-04-14T00:35:37.498Z,96305.72
2023-04-14T00:38:04.086Z,96299.75
2023-04-14T00:40:31.132Z,96291.81
2023-04-14T00:42:57.676Z,96310.34
2023-04-14T00:45:25.992Z,96309.81
2023-04-14T00:47:52.984Z,96301.59
2023-04-14T00:50:21.393Z,96296.72
2023-04-14T00:52:49.699Z,96293.13
2023-04-14T00:55:18.945Z,96299.31
2023-04-14T00:57:46.435Z,96308.56
2023-04-14T01:00:13.847Z,96304.19
2023-04-14T01:02:40.691Z,96295.69
2023-04-14T01:05:08.023Z,96293.66
2023-04-14T01:07:35.423Z,96303.66
2023-04-14T01:10:02.550Z,96295.22
2023-04-14T01:12:58.539Z,96302.13
2023-04-14T01:15:38.634Z,96286.50
2023-04-14T01:18:18.212Z,96290.03
2023-04-14T01:20:49.810Z,96271.78
2023-04-14T01:23:22.949Z,96289.25
2023-04-14T01:26:22.072Z,96291.81
2023-04-14T01:29:02.827Z,96292.59
2023-04-14T01:31:48.407Z,96292.34
2023-04-14T01:34:33.679Z,96279.25
2023-04-14T01:37:17.986Z,96283.88
2023-04-14T01:39:52.414Z,96275.13
2023-04-14T01:42:23.441Z,96283.09
2023-04-14T01:44:54.787Z,96274.34
2023-04-14T01:47:22.154Z,96271.00
2023-04-14T01:49:51.607Z,96281.78
2023-04-14T01:52:19.730Z,96275.88
2023-04-14T01:54:49.731Z,96269.41
2023-04-14T01:57:20.339Z,96280.78
2023-04-14T01:59:48.687Z,96275.59
2023-04-14T02:02:17.544Z,96283.34
2023-04-14T02:04:45.810Z,96273.56
2023-04-14T02:07:13.361Z,96273.84
2023-04-14T02:09:41.966Z,96273.03
2023-04-14T02:12:11.935Z,96264.09
2023-04-14T02:14:41.824Z,96270.75
2023-04-14T02:17:11.057Z,96254.53
2023-04-14T02:19:38.912Z,96273.56
2023-04-14T02:22:05.697Z,96250.47
2023-04-14T02:24:32.502Z,96249.97
2023-04-14T02:27:07.244Z,96229.91
2023-04-14T02:29:36.211Z,96240.72
2023-04-14T02:32:11.514Z,96232.50
2023-04-14T02:34:55.748Z,96234.28
2023-04-14T02:37:27.301Z,96245.78
2023-04-14T02:39:59.124Z,96252.47
2023-04-14T02:42:27.793Z,96255.50
2023-04-14T02:45:02.712Z,96262.13
2023-04-14T02:47:33.294Z,96253.91
2023-04-14T02:50:04.199Z,96259.00
2023-04-14T02:52:33.816Z,96248.25
2023-04-14T02:55:02.439Z,96235.97
2023-04-14T02:57:29.840Z,96231.41
2023-04-14T02:59:58.652Z,96210.88
2023-04-14T03:02:26.016Z,96171.13
2023-04-14T03:04:53.483Z,96185.00
2023-04-14T03:07:21.752Z,96188.84
2023-04-14T03:09:50.639Z,96192.94
2023-04-14T03:12:19.410Z,96174.94
2023-04-14T03:14:46.833Z,96175.44
2023-04-14T03:17:14.963Z,96174.88
2023-04-14T03:19:42.605Z,96167.91
2023-04-14T03:22:10.630Z,96157.13
2023-04-14T03:24:38.931Z,96147.63
2023-04-14T03:27:17.564Z,96166.97
2023-04-14T03:29:51.297Z,96163.59
2023-04-14T03:32:19.231Z,96169.31
2023-04-14T03:34:50.210Z,96148.50
2023-04-14T03:37:18.336Z,96156.72
2023-04-14T03:39:50.735Z,96150.81
2023-04-14T03:42:19.732Z,96144.44
2023-04-14T03:44:53.134Z,96130.84
2023-04-14T03:47:22.756Z,96124.72
2023-04-14T03:49:52.478Z,96139.63
2023-04-14T03:52:22.954Z,96161.94
2023-04-14T03:54:53.393Z,96163.72
2023-04-14T03:57:23.319Z,96157.56
2023-04-14T03:59:52.683Z,96162.19
2023-04-14T04:02:21.103Z,96157.59
2023-04-14T04:04:49.784Z,96170.19
2023-04-14T04:07:17.578Z,96146.31
2023-04-14T04:09:47.368Z,96148.66
2023-04-14T04:12:18.375Z,96147.63
2023-04-14T04:14:45.142Z,96138.66
2023-04-14T04:17:14.739Z,96147.91
2023-04-14T04:19:43.888Z,96147.16
2023-04-14T04:22:14.398Z,96162.03
2023-04-14T04:24:42.550Z,96168.72
2023-04-14T04:27:20.410Z,96148.19
2023-04-14T04:29:54.085Z,96157.44
2023-04-14T04:32:21.157Z,96160.75
2023-04-14T04:34:50.516Z,96141.25
2023-04-14T04:37:19.360Z,96160.25
2023-04-14T04:39:45.963Z,96154.88
2023-04-14T04:42:12.521Z,96152.81
2023-04-14T04:44:39.143Z,96146.88
2023-04-14T04:47:06.079Z,96141.22
2023-04-14T04:49:32.653Z,96135.84
2023-04-14T04:51:59.911Z,96133.56
2023-04-14T04:54:27.234Z,96130.47
2023-04-14T04:56:54.087Z,96135.59
2023-04-14T04:59:20.664Z,96118.34
2023-04-14T05:01:47.234Z,96117.88
2023-04-14T05:04:13.884Z,96110.91
2023-04-14T05:06:40.611Z,96128.34
2023-04-14T05:09:07.423Z,96125.50
2023-04-14T05:11:34.927Z,96101.66
2023-04-14T05:14:02.070Z,96096.00
2023-04-14T05:16:28.882Z,96110.91
2023-04-14T05:18:56.197Z,96102.97
2023-04-14T05:21:23.266Z,96108.88
2023-04-14T05:23:50.026Z,96097.84
2023-04-14T05:28:46.482Z,96104.75
2023-04-14T05:31:13.127Z,96099.88
2023-04-14T05:33:40.147Z,96078.56
2023-04-14T05:36:07.150Z,96079.06
2023-04-14T05:38:37.208Z,96074.47
2023-04-14T05:41:03.767Z,96067.28
2023-04-14T05:43:30.483Z,96072.41
2023-04-14T05:45:58.549Z,96063.41
2023-04-14T05:48:27.673Z,96051.59
2023-04-14T05:50:54.281Z,96046.19
2023-04-14T05:53:20.787Z,96048.22
2023-04-14T05:55:48.797Z,96036.41
2023-04-14T05:58:15.440Z,96033.31
2023-04-14T06:00:41.987Z,96039.97
2023-04-14T06:03:08.762Z,96035.63
2023-04-14T06:05:35.694Z,96037.19
2023-04-14T06:08:02.243Z,96035.41
2023-04-14T06:10:28.979Z,96022.31
2023-04-14T06:12:55.539Z,96031.53
2023-04-14T06:15:22.114Z,96022.56
2023-04-14T06:17:48.719Z,96027.72
2023-04-14T06:20:15.231Z,96027.72
2023-04-14T06:22:42.348Z,96024.63
2023-04-14T06:25:09.341Z,96015.91
2023-04-14T06:27:36.179Z,96012.06
2023-04-14T06:30:02.891Z,96021.28
2023-04-14T06:32:29.461Z,96031.84
2023-04-14T06:34:56.076Z,96013.34
2023-04-14T06:37:22.672Z,96021.78
2023-04-14T06:39:49.271Z,96023.13
2023-04-14T06:42:15.931Z,96017.19
2023-04-14T06:44:42.575Z,96017.97
2023-04-14T06:47:09.577Z,96011.81
2023-04-14T06:49:37.213Z,96009.25
2023-04-14T06:52:05.692Z,96008.44
2023-04-14T06:54:32.325Z,95997.16
2023-04-14T06:57:00.100Z,95981.22
2023-04-14T06:59:29.309Z,95987.38
2023-04-14T07:01:56.614Z,96012.06
2023-04-14T07:04:23.218Z,95991.00
2023-04-14T07:06:49.955Z,95995.88
2023-04-14T07:09:16.786Z,95985.88
2023-04-14T07:11:43.893Z,96001.03
2023-04-14T07:14:10.441Z,96007.19
2023-04-14T07:16:37.124Z,96007.69
2023-04-14T07:19:03.790Z,95997.66
2023-04-14T07:21:31.884Z,95998.69
2023-04-14T07:23:58.666Z,96015.41
2023-04-14T07:26:25.924Z,96017.69
2023-04-14T07:28:52.730Z,96054.44
2023-04-14T07:31:19.357Z,96045.72
2023-04-14T07:33:45.951Z,96053.16
2023-04-14T07:36:12.792Z,96053.94
2023-04-14T07:38:39.317Z,96046.97
2023-04-14T07:41:07.216Z,96035.69
2023-04-14T07:43:37.004Z,96025.41
2023-04-14T07:46:05.481Z,96038.78
2023-04-14T07:48:34.234Z,96030.53
2023-04-14T07:51:00.824Z,96035.19
2023-04-14T07:53:28.278Z,96042.88
2023-04-14T07:55:54.688Z,96027.72
2023-04-14T07:58:24.037Z,96027.47
2023-04-14T08:00:52.364Z,96021.56
2023-04-14T08:03:19.208Z,96012.84
2023-04-14T08:05:45.999Z,96030.78
2023-04-14T08:08:13.364Z,96025.94
2023-04-14T08:10:41.918Z,96036.16
2023-04-14T08:13:08.923Z,96041.06
2023-04-14T08:15:35.714Z,96025.66
2023-04-14T08:18:02.402Z,96022.00
2023-04-14T08:20:29.207Z,96015.81
2023-04-14T08:22:56.723Z,96021.97
2023-04-14T08:25:23.372Z,96028.41
2023-04-14T08:27:50.017Z,96022.00
2023-04-14T08:30:16.692Z,96042.06
2023-04-14T08:32:43.368Z,96035.91
2023-04-14T08:35:39.932Z,96000.72
2023-04-14T08:37:56.862Z,96017.19
2023-04-14T08:40:30.798Z,96020.50
2023-04-14T08:42:57.468Z,96009.41
2023-04-14T08:45:24.246Z,96030.84
2023-04-14T08:47:53.014Z,96020.66
2023-04-14T08:50:25.556Z,96047.91
2023-04-14T08:52:56.947Z,96060.75
2023-04-14T08:55:25.475Z,96046.81
2023-04-14T08:57:52.434Z,96071.06
2023-04-14T09:00:19.923Z,96044.84
2023-04-14T09:02:47.169Z,96043.75
2023-04-14T09:05:14.384Z,96050.59
2023-04-14T09:07:42.891Z,96053.59
2023-04-14T09:10:12.030Z,96061.72
2023-04-14T09:12:42.283Z,96051.13
2023-04-14T09:15:09.554Z,96061.50
2023-04-14T09:17:36.798Z,96058.09
2023-04-14T09:20:38.326Z,96058.00
2023-04-14T09:22:51.009Z,96067.97
2023-04-14T09:25:19.834Z,96058.94
2023-04-14T09:27:48.021Z,96078.81
2023-04-14T09:30:17.567Z,96072.72
2023-04-14T09:32:45.026Z,96062.72
2023-04-14T09:35:14.264Z,96070.53
2023-04-14T09:37:44.706Z,96072.22
2023-04-14T09:40:26.501Z,96083.25
2023-04-14T09:42:54.235Z,96099.31
2023-04-14T09:45:21.293Z,96112.78
2023-04-14T09:47:48.000Z,96121.81
2023-04-14T09:50:14.680Z,96124.47
2023-04-14T09:52:43.660Z,96146.91
2023-04-14T09:55:12.355Z,96161.63
2023-04-14T09:57:43.663Z,96214.06
2023-04-14T10:00:20.217Z,96268.47
2023-04-14T10:02:56.343Z,96314.59
2023-04-14T10:05:34.498Z,96319.16
2023-04-14T10:08:05.652Z,96349.25
2023-04-14T10:10:32.674Z,96384.44
2023-04-14T10:13:00.152Z,96374.91
2023-04-14T10:15:28.182Z,96387.88
2023-04-14T10:17:55.005Z,96351.47
2023-04-14T10:20:22.432Z,96385.03
2023-04-14T10:22:49.944Z,96406.19
2023-04-14T10:25:17.090Z,96403.41
2023-04-14T10:27:45.208Z,96408.53
2023-04-14T10:30:12.341Z,96368.03
2023-04-14T10:32:40.643Z,96374.50
2023-04-14T10:35:10.301Z,96373.75
2023-04-14T10:37:37.224Z,96398.59
2023-04-14T10:40:06.876Z,96413.19
2023-04-14T10:42:56.402Z,96394.25
2023-04-14T10:45:23.505Z,96433.03
2023-04-14T10:47:50.921Z,96396.03
2023-04-14T10:50:18.199Z,96390.81
2023-04-14T10:52:53.734Z,96406.56
2023-04-14T10:55:29.102Z,96413.59
2023-04-14T10:58:08.821Z,96364.91
2023-04-14T11:00:38.412Z,96372.38
2023-04-14T11:03:10.789Z,96358.75
2023-04-14T11:05:46.002Z,96373.75
2023-04-14T11:08:14.907Z,96391.72
2023-04-14T11:10:48.207Z,96385.00
2023-04-14T11:13:17.199Z,96390.88
2023-04-14T11:15:51.739Z,96446.34
2023-04-14T11:18:33.978Z,96404.75
2023-04-14T11:21:07.557Z,96434.31
2023-04-14T11:23:35.550Z,96429.06
2023-04-14T11:26:04.897Z,96469.94
2023-04-14T11:28:39.261Z,96483.13
2023-04-14T11:31:08.425Z,96482.94
2023-04-14T11:33:37.773Z,96488.28
2023-04-14T11:36:06.433Z,96478.47
2023-04-14T11:38:36.042Z,96481.13
2023-04-14T11:41:02.637Z,96490.09
2023-04-14T11:43:32.528Z,96507.16
2023-04-14T11:46:03.864Z,96483.78
2023-04-14T11:48:30.829Z,96533.53
2023-04-14T11:51:02.688Z,96540.25
2023-04-14T11:53:29.453Z,96546.09
2023-04-14T11:55:57.631Z,96559.63
2023-04-14T11:58:26.710Z,96549.34
2023-04-14T12:03:41.804Z,96580.94
2023-04-14T12:06:08.998Z,96604.75
2023-04-14T12:08:35.624Z,96592.53
2023-04-14T12:11:16.109Z,96577.00
2023-04-14T12:13:43.865Z,96581.56
2023-04-14T12:16:15.278Z,96594.84
2023-04-14T12:18:43.218Z,96594.81
2023-04-14T12:21:11.974Z,96589.50
2023-04-14T12:23:40.698Z,96565.16
2023-04-14T12:26:13.042Z,96548.63
2023-04-14T12:28:41.795Z,96545.00
2023-04-14T12:31:09.420Z,96558.63
2023-04-14T12:33:36.103Z,96570.28
2023-04-14T12:36:05.046Z,96587.09
2023-04-14T12:38:32.637Z,96575.34
2023-04-14T12:40:59.960Z,96562.94
2023-04-14T12:43:34.698Z,96541.44
2023-04-14T12:46:03.881Z,96557.19
2023-04-14T12:48:44.959Z,96552.78
2023-04-14T12:51:14.011Z,96562.69
2023-04-14T12:53:41.649Z,96570.09
2023-04-14T12:56:09.682Z,96559.28
2023-04-14T12:58:41.006Z,96553.38
2023-04-14T13:01:09.078Z,96542.94
2023-04-14T13:03:52.967Z,96550.03
2023-04-14T13:06:21.606Z,96543.44
2023-04-14T13:08:54.828Z,96522.38
2023-04-14T13:11:23.674Z,96522.44
2023-04-14T13:13:52.610Z,96520.91
2023-04-14T13:16:19.506Z,96500.59
2023-04-14T13:18:48.164Z,96489.97
2023-04-14T13:21:15.278Z,96492.69
2023-04-14T13:23:42.083Z,96513.53
2023-04-14T13:26:09.249Z,96517.09
2023-04-14T13:28:36.849Z,96510.16
2023-04-14T13:31:04.207Z,96496.63
2023-04-14T13:33:32.532Z,96497.16
2023-04-14T13:35:59.112Z,96482.66
2023-04-14T13:38:25.712Z,96470.25
2023-04-14T13:40:52.263Z,96450.78
2023-04-14T13:43:19.234Z,96469.44
2023-04-14T13:45:47.193Z,96473.19
2023-04-14T13:48:14.792Z,96489.38
2023-04-14T13:50:41.927Z,96496.69
2023-04-14T13:53:09.167Z,96483.38
2023-04-14T13:55:36.356Z,96487.75
2023-04-14T13:58:03.337Z,96498.88
2023-04-14T14:00:30.457Z,96514.47
2023-04-14T14:02:57.170Z,96522.97
2023-04-14T14:05:23.977Z,96506.44
2023-04-14T14:07:50.620Z,96497.94
2023-04-14T14:10:17.244Z,96503.66
2023-04-14T14:12:44.026Z,96510.19
2023-04-14T14:15:11.388Z,96508.34
2023-04-14T14:17:38.135Z,96508.91
2023-04-14T14:20:06.405Z,96486.44
2023-04-14T14:22:32.988Z,96490.69
2023-04-14T14:25:14.975Z,96491.94
2023-04-14T14:27:45.693Z,96486.75
2023-04-14T14:30:12.874Z,96460.06
2023-04-14T14:32:39.636Z,96467.84
2023-04-14T14:35:06.504Z,96468.47
2023-04-14T14:37:33.181Z,96463.31
2023-04-14T14:39:59.762Z,96463.81
2023-04-14T14:42:27.003Z,96447.34
2023-04-14T14:44:53.925Z,96446.84
2023-04-14T14:47:21.064Z,96452.28
2023-04-14T14:49:59.109Z,96454.31
2023-04-14T14:52:33.474Z,96461.00
2023-04-14T14:55:00.644Z,96448.19
2023-04-14T14:57:27.628Z,96457.06
2023-04-14T14:59:54.346Z,96471.41
2023-04-14T15:02:21.523Z,96462.84
2023-04-14T15:04:48.986Z,96467.69
2023-04-14T15:07:15.482Z,96461.44
2023-04-14T15:09:42.194Z,96461.28
2023-04-14T15:12:08.800Z,96460.72
2023-04-14T15:14:35.875Z,96454.97
2023-04-14T15:17:03.044Z,96449.59
2023-04-14T15:19:29.647Z,96444.53
2023-04-14T15:21:56.413Z,96438.31
2023-04-14T15:24:23.045Z,96437.00
2023-04-14T15:26:49.697Z,96444.31
2023-04-14T15:29:16.785Z,96435.22
2023-04-14T15:31:43.451Z,96435.50
2023-04-14T15:34:10.092Z,96427.50
2023-04-14T15:36:37.234Z,96433.72
2023-04-14T15:39:03.932Z,96436.63
2023-04-14T15:41:30.648Z,96430.78
2023-04-14T15:43:57.411Z,96432.63
2023-04-14T15:46:24.114Z,96422.81
2023-04-14T15:48:50.776Z,96421.56
2023-04-14T15:51:18.524Z,96395.88
2023-04-14T15:53:45.084Z,96406.16
2023-04-14T15:56:11.701Z,96406.75
2023-04-14T15:58:38.370Z,96399.97
2023-04-14T16:01:08.058Z,96394.75
2023-04-14T16:03:35.665Z,96398.41
2023-04-14T16:06:03.677Z,96406.34
2023-04-14T16:08:30.571Z,96399.69
2023-04-14T16:10:57.151Z,96398.41
2023-04-14T16:13:23.852Z,96394.53
2023-04-14T16:15:50.629Z,96385.63
2023-04-14T16:18:17.316Z,96388.16
2023-04-14T16:20:44.131Z,96387.19
2023-04-14T16:23:10.837Z,96393.22
2023-04-14T16:25:37.802Z,96391.66
2023-04-14T16:28:04.514Z,96394.19
2023-04-14T16:30:31.864Z,96385.84
2023-04-14T16:32:58.589Z,96389.72
2023-04-14T16:35:25.975Z,96384.09
2023-04-14T16:37:53.300Z,96390.31
2023-04-14T16:40:19.979Z,96382.34
2023-04-14T16:42:47.306Z,96372.34
2023-04-14T16:45:15.364Z,96376.94
2023-04-14T16:47:42.055Z,96362.28
2023-04-14T16:50:09.242Z,96364.72
2023-04-14T16:52:35.818Z,96361.47
2023-04-14T16:55:02.545Z,96353.31
2023-04-14T16:57:29.171Z,96349.25
2023-04-14T16:59:55.888Z,96342.63
2023-04-14T17:02:22.909Z,96334.47
2023-04-14T17:04:49.909Z,96333.78
2023-04-14T17:07:16.692Z,96337.84
2023-04-14T17:09:43.461Z,96341.53
2023-04-14T17:12:10.333Z,96325.84
2023-04-14T17:14:37.316Z,96331.53
2023-04-14T17:17:04.231Z,96343.78
2023-04-14T17:19:31.405Z,96341.09
2023-04-14T17:21:58.285Z,96345.31
2023-04-14T17:24:25.403Z,96342.22
2023-04-14T17:26:52.163Z,96347.06
2023-04-14T17:29:18.831Z,96343.63
2023-04-14T17:31:46.155Z,96349.81
2023-04-14T17:34:13.112Z,96346.28
2023-04-14T17:36:39.788Z,96348.19
2023-04-14T17:39:08.402Z,96346.81
2023-04-14T17:41:35.594Z,96348.84
2023-04-14T17:44:02.414Z,96362.25
2023-04-14T17:46:35.149Z,96364.72
2023-04-14T17:49:02.287Z,96367.25
2023-04-14T17:51:30.661Z,96374.53
2023-04-14T17:53:58.074Z,96374.84
2023-04-14T17:56:24.788Z,96373.44
2023-04-14T17:58:54.496Z,96372.25
2023-04-14T18:01:22.257Z,96365.69
2023-04-14T18:03:49.216Z,96365.88
2023-04-14T18:06:16.677Z,96378.53
2023-04-14T18:08:43.140Z,96384.53
2023-04-14T18:11:10.477Z,96385.78
2023-04-14T18:13:37.049Z,96386.13
2023-04-14T18:16:04.526Z,96387.91
2023-04-14T18:18:31.359Z,96396.41
2023-04-14T18:20:58.255Z,96387.78
2023-04-14T18:23:24.873Z,96384.53
2023-04-14T18:28:31.607Z,96383.81
2023-04-14T18:30:59.403Z,96393.31
2023-04-14T18:33:28.279Z,96371.88
2023-04-14T18:35:56.860Z,96378.56
2023-04-14T18:38:24.795Z,96388.06
2023-04-14T18:40:51.531Z,96386.88
2023-04-14T18:43:18.644Z,96375.53
2023-04-14T18:45:49.441Z,96381.75
2023-04-14T18:48:16.968Z,96379.41
2023-04-14T18:50:44.429Z,96382.41
2023-04-14T18:53:11.783Z,96381.69
2023-04-14T18:55:44.868Z,96382.06
2023-04-14T18:58:12.996Z,96374.28
2023-04-14T19:00:40.085Z,96392.88
2023-04-14T19:03:08.570Z,96397.25
2023-04-14T19:05:36.965Z,96387.00
2023-04-14T19:08:04.587Z,96388.72
2023-04-14T19:10:31.626Z,96387.88
2023-04-14T19:12:58.364Z,96376.16
2023-04-14T19:15:28.565Z,96388.00
2023-04-14T19:17:56.100Z,96385.53
2023-04-14T19:20:24.216Z,96384.91
2023-04-14T19:22:51.243Z,96386.31
2023-04-14T19:25:17.879Z,96398.91
2023-04-14T19:27:44.752Z,96401.41
2023-04-14T19:30:12.240Z,96399.09
2023-04-14T19:32:38.996Z,96392.53
2023-04-14T19:35:07.791Z,96391.75
2023-04-14T19:37:35.488Z,96396.59
2023-04-14T19:40:06.207Z,96397.72
2023-04-14T19:42:33.531Z,96395.03
2023-04-14T19:45:00.686Z,96391.78
2023-04-14T19:47:27.656Z,96395.06
2023-04-14T19:49:55.303Z,96404.56
2023-04-14T19:52:22.456Z,96404.56
2023-04-14T19:54:49.724Z,96396.47
2023-04-14T19:57:16.898Z,96401.47
2023-04-14T19:59:44.240Z,96397.59
2023-04-14T20:02:13.176Z,96403.06
2023-04-14T20:04:40.648Z,96401.50
2023-04-14T20:07:07.501Z,96380.66
2023-04-14T20:09:34.632Z,96397.78
2023-04-14T20:12:02.415Z,96401.19
2023-04-14T20:14:29.446Z,96383.16
2023-04-14T20:16:56.655Z,96397.16
2023-04-14T20:19:24.506Z,96403.69
2023-04-14T20:21:51.391Z,96390.47
2023-04-14T20:24:18.104Z,96393.13
2023-04-14T20:26:45.095Z,96396.41
2023-04-14T20:29:12.306Z,96383.50
2023-04-14T20:31:39.765Z,96408.41
2023-04-14T20:34:06.324Z,96403.44
2023-04-14T20:36:36.025Z,96405.13
2023-04-14T20:39:05.756Z,96410.88
2023-04-14T20:41:33.761Z,96404.00
2023-04-14T20:44:00.698Z,96403.69
2023-04-14T20:46:27.996Z,96406.28
2023-04-14T20:48:54.593Z,96402.22
2023-04-14T20:51:21.217Z,96407.84
2023-04-14T20:53:47.792Z,96405.72
2023-04-14T20:56:14.379Z,96414.25
2023-04-14T20:58:40.947Z,96420.19
2023-04-14T21:01:07.687Z,96415.84
2023-04-14T21:03:34.769Z,96409.78
2023-04-14T21:06:02.082Z,96418.03
2023-04-14T21:08:29.938Z,96423.63
2023-04-14T21:11:15.518Z,96422.25
2023-04-14T21:15:26.764Z,96419.91
2023-04-14T21:16:30.514Z,96427.50
2023-04-14T21:18:57.538Z,96427.22
2023-04-14T21:21:24.295Z,96423.63
2023-04-14T21:23:51.027Z,96415.25
2023-04-14T21:26:17.853Z,96424.41
2023-04-14T21:28:44.569Z,96429.22
2023-04-14T21:31:11.471Z,96415.97
2023-04-14T21:33:40.051Z,96437.25
2023-04-14T21:36:07.114Z,96435.84
2023-04-14T21:38:33.840Z,96444.19
2023-04-14T21:41:00.885Z,96438.25
2023-04-14T21:43:27.551Z,96446.00
2023-04-14T21:45:54.479Z,96440.84
2023-04-14T21:48:21.024Z,96452.03
2023-04-14T21:50:47.785Z,96434.25
2023-04-14T21:53:14.388Z,96454.50
2023-04-14T21:55:41.155Z,96449.44
2023-04-14T21:58:07.817Z,96453.47
2023-04-14T22:00:34.782Z,96459.69
2023-04-14T22:03:01.772Z,96460.00
2023-04-14T22:05:28.593Z,96461.56
2023-04-14T22:07:55.240Z,96464.38
2023-04-14T22:10:22.142Z,96450.03
2023-04-14T22:12:48.814Z,96466.22
2023-04-14T22:15:15.667Z,96463.34
2023-04-14T22:17:42.542Z,96464.91
2023-04-14T22:20:09.834Z,96467.09
2023-04-14T22:22:36.844Z,96462.50
2023-04-14T22:25:04.158Z,96463.91
2023-04-14T22:27:33.947Z,96463.28
2023-04-14T22:30:01.959Z,96460.72
2023-04-14T22:32:28.825Z,96466.47
2023-04-14T22:34:55.434Z,96460.09
2023-04-14T22:37:22.165Z,96467.66
2023-04-14T22:39:48.950Z,96471.09
2023-04-14T22:42:16.177Z,96465.84
2023-04-14T22:44:42.721Z,96477.00
2023-04-14T22:47:09.655Z,96471.09
2023-04-14T22:49:36.443Z,96474.28
2023-04-14T22:52:03.023Z,96469.50
2023-04-14T22:54:29.616Z,96473.50
2023-04-14T22:56:56.482Z,96466.38
2023-04-14T22:59:23.547Z,96470.13
2023-04-14T23:01:51.477Z,96480.03
2023-04-14T23:04:18.475Z,96466.31
2023-04-14T23:06:45.591Z,96441.97
2023-04-14T23:09:12.581Z,96462.81
2023-04-14T23:11:39.137Z,96466.16
2023-04-14T23:14:06.049Z,96472.22
2023-04-14T23:16:32.783Z,96468.28
2023-04-14T23:18:59.720Z,96472.81
2023-04-14T23:21:27.551Z,96474.38
2023-04-14T23:23:54.399Z,96472.88
2023-04-14T23:26:21.757Z,96466.72
2023-04-14T23:28:48.400Z,96473.06
2023-04-14T23:31:14.996Z,96472.53
2023-04-14T23:33:41.575Z,96471.44
2023-04-14T23:36:08.355Z,96474.03
2023-04-14T23:38:34.936Z,96474.56
2023-04-14T23:41:02.314Z,96477.13
2023-04-14T23:43:29.202Z,96475.81
2023-04-14T23:45:55.982Z,96479.44
2023-04-14T23:48:22.727Z,96483.78
2023-04-14T23:51:01.213Z,96485.34
2023-04-14T23:53:36.181Z,96487.22
2023-04-14T23:56:04.172Z,96477.13
2023-04-14T23:58:31.662Z,96492.16
